Time;durP1;ratioP1;P1;durP2;ratioP2;P2;SDS_P1;SDS_P2;PMS_P1;PMS_P2;Temp;Humidity;BMP_temperature;BMP_pressure;BME280_temperature;BME280_humidity;BME280_pressure;Samples;Min_cycle;Max_cycle;Signal;HPM_P1;HPM_P2
2022/03/13 00:00:36;;;;;;;28.77;22.75;;;;;;;7.16;92.64;99243.63;4963502;28;20559;-76
2022/03/13 00:03:03;;;;;;;29.48;21.25;;;;;;;7.15;91.89;99230.34;4924954;28;20988;-76
2022/03/13 00:05:30;;;;;;;30.42;21.02;;;;;;;7.04;92.19;99226.38;4966472;28;20189;-77
2022/03/13 00:07:58;;;;;;;31.90;21.38;;;;;;;7.25;90.29;99237.81;4965902;28;20203;-77
2022/03/13 00:10:27;;;;;;;28.95;21.25;;;;;;;7.06;91.76;99237.03;4965736;28;20209;-76
2022/03/13 00:12:54;;;;;;;25.73;20.00;;;;;;;6.98;92.12;99233.84;4973192;28;20240;-77
2022/03/13 00:15:26;;;;;;;30.45;21.30;;;;;;;7.24;90.07;99238.78;4971943;28;20199;-77
2022/03/13 00:17:53;;;;;;;29.55;20.08;;;;;;;7.20;90.18;99233.66;4969154;28;20192;-77
2022/03/13 00:20:20;;;;;;;25.05;19.60;;;;;;;7.22;89.09;99235.31;4971025;28;20577;-76
2022/03/13 00:22:46;;;;;;;24.23;19.08;;;;;;;7.28;88.79;99231.44;4973526;28;20635;-76
2022/03/13 00:25:15;;;;;;;26.10;19.13;;;;;;;7.35;88.10;99234.69;4972759;28;20644;-77
2022/03/13 00:27:43;;;;;;;26.90;20.13;;;;;;;7.26;87.25;99238.72;4972992;28;20208;-77
2022/03/13 00:30:12;;;;;;;28.85;18.75;;;;;;;7.31;87.25;99247.38;4972615;28;20231;-75
2022/03/13 00:32:38;;;;;;;26.85;18.90;;;;;;;7.08;88.27;99245.84;4973201;28;20192;-76
2022/03/13 00:35:06;;;;;;;25.05;18.02;;;;;;;7.25;87.06;99250.34;4972715;28;20200;-77
2022/03/13 00:37:32;;;;;;;25.98;18.38;;;;;;;7.26;86.28;99250.28;4972341;28;20197;-77
2022/03/13 00:40:00;;;;;;;24.52;18.65;;;;;;;7.28;86.25;99256.44;4972404;28;20191;-77
2022/03/13 00:42:29;;;;;;;23.08;18.50;;;;;;;7.23;86.57;99249.56;4969403;28;20227;-77
2022/03/13 00:44:55;;;;;;;23.65;18.13;;;;;;;7.33;86.11;99261.56;4968308;28;20204;-76
2022/03/13 00:47:22;;;;;;;26.17;18.60;;;;;;;7.40;84.99;99254.09;4962123;28;20209;-77
2022/03/13 00:49:50;;;;;;;23.63;19.15;;;;;;;7.49;85.59;99262.50;4952423;29;20205;-77
2022/03/13 00:52:17;;;;;;;27.00;20.85;;;;;;;7.49;87.62;99258.97;4968576;28;20283;-77
2022/03/13 00:54:44;;;;;;;30.67;21.20;;;;;;;7.50;89.17;99264.22;4971452;28;20211;-77
2022/03/13 00:57:11;;;;;;;28.33;21.98;;;;;;;7.45;90.38;99258.25;4971837;28;20231;-77
2022/03/13 00:59:39;;;;;;;28.05;21.95;;;;;;;7.43;91.87;99252.09;4973397;28;20188;-77
2022/03/13 01:02:05;;;;;;;24.33;18.95;;;;;;;7.05;90.33;99246.84;4972537;28;20199;-77
2022/03/13 01:04:32;;;;;;;24.13;17.23;;;;;;;6.77;90.43;99247.34;4964016;28;20247;-77
2022/03/13 01:06:59;;;;;;;27.77;19.00;;;;;;;6.79;90.24;99245.47;4969548;28;20199;-77
2022/03/13 01:09:25;;;;;;;24.73;17.77;;;;;;;6.73;90.29;99243.06;4970798;28;20196;-77
2022/03/13 01:11:52;;;;;;;27.75;19.08;;;;;;;6.78;90.37;99243.69;4971691;28;20283;-77
2022/03/13 01:14:20;;;;;;;26.98;17.83;;;;;;;6.79;90.10;99234.75;4970496;28;20216;-77
2022/03/13 01:16:49;;;;;;;22.45;17.85;;;;;;;6.61;91.04;99222.25;4970669;28;20200;-77
2022/03/13 01:19:15;;;;;;;26.58;18.55;;;;;;;6.54;91.94;99231.53;4970247;28;20265;-77
2022/03/13 01:21:43;;;;;;;25.48;18.60;;;;;;;6.71;89.94;99230.72;4970478;28;20280;-77
2022/03/13 01:24:24;;;;;;;19.85;16.08;;;;;;;6.91;87.34;99227.06;4972427;28;20258;-76
2022/03/13 01:26:55;;;;;;;20.15;15.60;;;;;;;6.81;87.16;99227.53;4972209;28;20198;-76
2022/03/13 01:29:22;;;;;;;21.20;16.88;;;;;;;7.08;86.18;99213.72;4961422;28;20227;-76
2022/03/13 01:31:50;;;;;;;25.08;17.85;;;;;;;7.00;85.41;99211.41;4972194;28;20302;-76
2022/03/13 01:34:37;;;;;;;24.65;17.20;;;;;;;7.18;82.91;99208.78;4972466;28;20188;-78
2022/03/13 01:37:04;;;;;;;21.13;16.23;;;;;;;7.19;81.95;99198.00;4972461;28;20202;-77
2022/03/13 01:39:31;;;;;;;22.45;15.50;;;;;;;7.28;81.40;99204.66;4969430;28;20192;-77
2022/03/13 01:41:57;;;;;;;23.70;15.95;;;;;;;7.42;79.23;99198.63;4969119;28;20193;-77
2022/03/13 01:44:24;;;;;;;24.17;16.75;;;;;;;7.67;77.47;99203.56;4967690;28;20650;-77
2022/03/13 01:46:52;;;;;;;26.65;15.50;;;;;;;8.01;74.72;99205.31;4969263;28;20648;-77
2022/03/13 01:49:20;;;;;;;21.33;15.23;;;;;;;8.28;72.13;99207.47;4969429;28;20617;-77
2022/03/13 01:51:46;;;;;;;21.80;16.05;;;;;;;8.25;71.70;99208.47;4968212;28;20259;-77
2022/03/13 01:54:14;;;;;;;22.85;15.93;;;;;;;8.29;71.19;99209.16;4965826;28;20626;-77
2022/03/13 01:56:42;;;;;;;23.20;17.73;;;;;;;8.48;69.06;99211.72;4976034;28;20296;-76
2022/03/13 01:59:11;;;;;;;21.75;16.15;;;;;;;8.43;68.24;99211.97;4971886;28;20196;-75
2022/03/13 02:01:38;;;;;;;23.17;16.67;;;;;;;8.39;69.00;99209.53;4975903;28;20240;-78
2022/03/13 02:04:07;;;;;;;26.13;15.98;;;;;;;8.39;68.89;99215.78;4973029;28;20284;-77
2022/03/13 02:06:34;;;;;;;19.20;15.73;;;;;;;8.18;69.42;99211.56;4971614;28;20311;-77
2022/03/13 02:09:02;;;;;;;23.45;17.85;;;;;;;7.94;73.51;99211.97;4975711;28;20189;-77
2022/03/13 02:11:36;;;;;;;22.02;15.63;;;;;;;7.94;73.64;99209.28;4971616;28;20207;-77
2022/03/13 02:14:03;;;;;;;25.33;17.50;;;;;;;8.02;74.00;99208.84;4969652;28;20284;-76
2022/03/13 02:16:30;;;;;;;22.23;16.45;;;;;;;7.88;73.90;99210.47;4970345;28;20592;-77
2022/03/13 02:18:57;;;;;;;21.50;16.80;;;;;;;8.01;73.15;99216.03;4976229;28;20607;-77
2022/03/13 02:21:27;;;;;;;22.00;16.35;;;;;;;7.98;73.24;99221.56;4972069;28;20197;-77
2022/03/13 02:23:56;;;;;;;20.00;16.40;;;;;;;7.89;73.85;99211.31;4974481;28;20198;-77
2022/03/13 02:26:23;;;;;;;25.88;17.25;;;;;;;7.97;75.51;99208.25;4973637;28;20515;-77
2022/03/13 02:28:52;;;;;;;22.80;17.58;;;;;;;8.14;74.05;99206.38;4969383;28;20255;-77
2022/03/13 02:31:25;;;;;;;25.08;17.95;;;;;;;8.24;73.83;99195.16;4970256;28;20214;-77
2022/03/13 02:33:53;;;;;;;20.00;16.48;;;;;;;8.17;74.64;99205.34;4970596;28;20200;-76
2022/03/13 02:36:24;;;;;;;25.73;18.30;;;;;;;8.06;75.05;99194.34;4972161;28;20207;-77
2022/03/13 02:38:51;;;;;;;22.40;17.60;;;;;;;7.74;76.41;99194.25;4970243;28;20197;-77
2022/03/13 02:41:19;;;;;;;25.70;16.85;;;;;;;7.81;74.45;99186.75;4970442;28;20184;-77
2022/03/13 02:43:46;;;;;;;24.42;16.17;;;;;;;8.06;72.10;99200.56;4973392;28;20213;-77
2022/03/13 02:46:19;;;;;;;21.20;16.13;;;;;;;8.29;69.47;99198.44;4973753;28;20193;-77
2022/03/13 02:48:46;;;;;;;21.90;16.23;;;;;;;8.42;67.59;99212.09;4970957;28;20193;-77
2022/03/13 02:51:13;;;;;;;19.08;14.73;;;;;;;8.46;66.89;99209.16;4974807;28;20221;-77
2022/03/13 02:53:39;;;;;;;23.00;15.15;;;;;;;8.22;66.73;99208.66;4975885;28;20201;-77
2022/03/13 02:56:06;;;;;;;19.05;15.38;;;;;;;8.32;66.24;99209.00;4969535;28;20686;-77
2022/03/13 02:58:34;;;;;;;22.48;15.23;;;;;;;8.45;64.27;99195.81;4969321;28;20659;-77
2022/03/13 03:01:01;;;;;;;22.33;16.48;;;;;;;8.43;65.15;99201.25;4969250;28;20201;-76
2022/03/13 03:03:28;;;;;;;22.67;16.55;;;;;;;8.22;65.58;99203.28;4974880;28;20305;-76
2022/03/13 03:05:54;;;;;;;21.45;15.50;;;;;;;8.39;65.17;99198.78;4969167;28;20537;-76
2022/03/13 03:08:22;;;;;;;21.30;15.25;;;;;;;8.22;65.32;99197.91;4968876;28;20194;-76
2022/03/13 03:10:49;;;;;;;22.10;15.77;;;;;;;7.90;66.83;99199.66;4967981;28;20265;-76
2022/03/13 03:13:17;;;;;;;18.75;15.32;;;;;;;7.67;69.32;99198.22;4975625;28;20198;-76
2022/03/13 03:15:45;;;;;;;29.60;15.20;;;;;;;7.65;69.68;99203.63;4968365;28;20235;-76
2022/03/13 03:18:12;;;;;;;22.55;16.48;;;;;;;7.55;70.40;99197.03;4968698;28;20222;-76
2022/03/13 03:20:39;;;;;;;17.90;14.10;;;;;;;7.52;71.49;99202.53;4967947;28;20328;-77
2022/03/13 03:23:07;;;;;;;21.20;16.42;;;;;;;7.38;72.10;99202.41;4974452;28;20186;-76
2022/03/13 03:25:34;;;;;;;20.90;16.33;;;;;;;7.43;72.19;99206.56;4967628;28;20195;-76
2022/03/13 03:28:00;;;;;;;24.38;15.88;;;;;;;7.51;71.88;99206.19;4969405;28;20556;-76
2022/03/13 03:30:29;;;;;;;19.55;15.60;;;;;;;7.66;71.38;99215.22;4972373;28;20220;-76
2022/03/13 03:32:58;;;;;;;26.90;16.65;;;;;;;7.73;69.98;99206.78;4969314;28;20189;-77
2022/03/13 03:35:26;;;;;;;17.80;15.00;;;;;;;7.46;71.05;99213.56;4974368;28;20288;-77
2022/03/13 03:37:55;;;;;;;22.85;15.60;;;;;;;7.47;71.43;99207.28;4966574;28;20199;-77
2022/03/13 03:40:22;;;;;;;20.27;15.75;;;;;;;7.45;71.63;99210.03;4966373;28;20196;-76
2022/03/13 03:42:49;;;;;;;22.33;15.60;;;;;;;7.46;71.60;99202.84;4965083;28;20240;-76
2022/03/13 03:45:17;;;;;;;20.73;15.90;;;;;;;7.49;71.68;99208.94;4966225;28;20640;-77
2022/03/13 03:47:44;;;;;;;21.58;15.38;;;;;;;7.38;71.51;99207.75;4959651;28;20191;-76
2022/03/13 03:50:12;;;;;;;21.13;15.07;;;;;;;7.27;72.58;99209.16;4974305;28;20206;-77
2022/03/13 03:52:38;;;;;;;21.95;16.02;;;;;;;7.31;72.42;99199.16;4970951;28;20878;-76
2022/03/13 03:55:06;;;;;;;27.05;16.27;;;;;;;7.23;73.39;99201.34;4970324;28;20200;-76
2022/03/13 03:57:32;;;;;;;21.42;15.73;;;;;;;7.48;71.93;99211.69;4966251;28;20191;-76
2022/03/13 03:59:59;;;;;;;21.17;14.20;;;;;;;7.64;70.25;99209.97;4966735;28;20188;-76
2022/03/13 04:02:25;;;;;;;20.33;15.18;;;;;;;7.65;69.82;99203.63;4970460;28;20196;-76
2022/03/13 04:04:52;;;;;;;18.73;15.70;;;;;;;7.60;69.52;99204.81;4970660;28;20639;-76
2022/03/13 04:07:20;;;;;;;25.60;15.95;;;;;;;7.37;71.87;99196.19;4973515;28;20551;-76
2022/03/13 04:09:47;;;;;;;21.90;15.48;;;;;;;7.39;73.03;99183.56;4972128;28;20210;-76
2022/03/13 04:12:13;;;;;;;20.77;15.70;;;;;;;7.51;74.49;99187.44;4973205;28;20700;-76
2022/03/13 04:14:40;;;;;;;18.85;15.23;;;;;;;7.80;72.70;99191.25;4973116;28;20195;-76
2022/03/13 04:17:07;;;;;;;22.20;15.13;;;;;;;7.76;71.95;99207.59;4972150;28;20199;-77
2022/03/13 04:19:33;;;;;;;19.75;15.27;;;;;;;8.06;68.38;99205.94;4973682;28;20590;-76
2022/03/13 04:22:00;;;;;;;19.08;14.85;;;;;;;7.99;68.50;99217.94;4972338;28;20195;-76
2022/03/13 04:24:30;;;;;;;23.50;16.38;;;;;;;8.26;66.06;99214.72;4971331;28;20190;-76
2022/03/13 04:26:57;;;;;;;23.65;16.13;;;;;;;8.28;66.78;99218.19;4969802;28;20261;-76
2022/03/13 04:29:24;;;;;;;19.58;15.27;;;;;;;8.27;66.15;99222.66;4973572;28;20196;-76
2022/03/13 04:31:52;;;;;;;22.02;16.33;;;;;;;8.30;65.75;99218.97;4972213;28;20243;-76
2022/03/13 04:34:18;;;;;;;23.48;16.00;;;;;;;8.21;66.18;99222.13;4972196;28;20246;-76
2022/03/13 04:36:45;;;;;;;21.27;15.57;;;;;;;7.85;67.86;99215.13;4971882;28;20202;-77
2022/03/13 04:39:13;;;;;;;22.63;16.80;;;;;;;8.09;67.50;99213.78;4972149;28;20200;-76
2022/03/13 04:41:41;;;;;;;23.20;16.95;;;;;;;8.10;68.85;99215.53;4970031;28;20363;-76
2022/03/13 04:44:09;;;;;;;22.15;16.48;;;;;;;8.33;69.12;99216.09;4971692;28;20655;-76
2022/03/13 04:46:36;;;;;;;23.02;16.83;;;;;;;8.31;72.45;99216.19;4965214;28;20189;-76
2022/03/13 04:49:02;;;;;;;21.10;17.35;;;;;;;8.43;75.57;99221.84;4971985;28;20203;-77
2022/03/13 04:51:29;;;;;;;21.75;17.73;;;;;;;8.31;78.78;99209.97;4972608;28;20549;-77
2022/03/13 04:53:56;;;;;;;26.08;19.77;;;;;;;8.08;81.77;99213.91;4971081;28;20194;-77
2022/03/13 04:56:23;;;;;;;22.42;17.85;;;;;;;8.14;80.53;99192.97;4970678;28;20190;-76
2022/03/13 04:58:51;;;;;;;24.48;18.40;;;;;;;8.04;80.85;99197.09;4970589;28;20201;-77
2022/03/13 05:01:20;;;;;;;24.35;18.15;;;;;;;8.12;81.55;99205.59;4965269;28;20186;-76
2022/03/13 05:03:47;;;;;;;23.75;18.48;;;;;;;8.11;79.95;99190.44;4962726;28;20201;-76
2022/03/13 05:06:14;;;;;;;23.75;18.83;;;;;;;8.08;80.84;99209.41;4967877;28;20192;-76
2022/03/13 05:08:41;;;;;;;22.48;16.85;;;;;;;8.05;77.61;99201.53;4972791;28;20193;-76
2022/03/13 05:11:07;;;;;;;22.80;16.10;;;;;;;8.08;77.25;99205.84;4969880;28;20327;-76
2022/03/13 05:13:35;;;;;;;21.20;17.15;;;;;;;7.74;77.54;99199.63;4975199;28;20201;-77
2022/03/13 05:16:04;;;;;;;22.20;16.25;;;;;;;7.58;78.13;99191.53;4968908;28;20190;-76
2022/03/13 05:18:30;;;;;;;21.30;16.27;;;;;;;7.81;78.52;99198.34;4963518;28;20643;-78
2022/03/13 05:20:57;;;;;;;21.98;16.10;;;;;;;7.90;75.63;99200.53;4967670;28;20192;-76
2022/03/13 05:23:25;;;;;;;20.83;15.90;;;;;;;7.99;75.21;99196.50;4973061;28;20209;-76
2022/03/13 05:25:51;;;;;;;22.10;15.75;;;;;;;7.79;75.82;99199.38;4970338;28;20198;-77
2022/03/13 05:28:18;;;;;;;21.17;15.60;;;;;;;7.32;79.07;99209.78;4981555;28;20310;-77
2022/03/13 05:30:46;;;;;;;23.25;17.30;;;;;;;7.36;78.53;99205.16;4979804;28;20296;-77
2022/03/13 05:33:14;;;;;;;23.30;16.50;;;;;;;7.25;80.18;99208.38;4970979;28;20231;-77
2022/03/13 05:35:40;;;;;;;22.42;16.70;;;;;;;6.97;81.46;99195.50;4965866;28;20207;-77
2022/03/13 05:38:07;;;;;;;24.58;17.13;;;;;;;7.05;83.81;99203.16;4969191;28;20187;-76
2022/03/13 05:40:36;;;;;;;25.80;16.25;;;;;;;7.02;83.37;99206.00;4967171;28;20208;-76
2022/03/13 05:43:04;;;;;;;23.75;17.80;;;;;;;6.69;83.97;99214.72;4965319;28;20185;-77
2022/03/13 05:45:32;;;;;;;22.30;17.30;;;;;;;6.57;85.59;99205.47;4965632;28;20192;-77
2022/03/13 05:48:00;;;;;;;22.42;16.52;;;;;;;6.63;83.64;99209.69;4968288;28;20196;-76
2022/03/13 05:50:30;;;;;;;18.80;15.20;;;;;;;6.86;84.03;99204.06;4968059;28;20194;-77
2022/03/13 05:52:56;;;;;;;21.40;15.68;;;;;;;6.98;79.54;99209.75;4967365;28;20216;-77
2022/03/13 05:55:25;;;;;;;25.55;17.95;;;;;;;6.96;80.64;99204.47;4975005;28;20370;-77
2022/03/13 05:57:52;;;;;;;29.00;16.85;;;;;;;6.81;80.96;99205.25;4965543;28;20223;-77
2022/03/13 06:00:21;;;;;;;21.35;15.20;;;;;;;6.86;79.95;99211.25;4968951;28;20203;-77
2022/03/13 06:02:47;;;;;;;20.58;14.77;;;;;;;6.95;78.06;99224.16;4965546;28;20196;-77
2022/03/13 06:05:17;;;;;;;23.10;15.50;;;;;;;7.05;78.12;99221.88;4972308;28;20198;-77
2022/03/13 06:07:46;;;;;;;20.95;15.40;;;;;;;7.15;78.00;99222.31;4967296;28;20212;-76
2022/03/13 06:10:12;;;;;;;22.20;16.48;;;;;;;7.24;74.85;99225.41;4963458;28;20189;-77
2022/03/13 06:12:39;;;;;;;20.42;15.55;;;;;;;7.14;75.15;99216.06;4971226;28;20212;-77
2022/03/13 06:15:08;;;;;;;24.25;16.15;;;;;;;7.16;76.29;99222.22;4968386;28;20613;-76
2022/03/13 06:17:38;;;;;;;20.88;16.23;;;;;;;7.26;74.73;99228.88;4961502;28;20627;-77
2022/03/13 06:20:08;;;;;;;24.40;16.13;;;;;;;7.11;75.94;99232.31;4970384;28;20597;-76
2022/03/13 06:22:35;;;;;;;26.13;15.70;;;;;;;7.16;76.54;99237.44;4962006;28;20201;-77
2022/03/13 06:25:03;;;;;;;21.95;16.42;;;;;;;7.09;77.64;99229.69;4972729;28;20220;-76
2022/03/13 06:27:30;;;;;;;21.08;16.10;;;;;;;6.90;78.78;99236.91;4969807;28;20237;-76
2022/03/13 06:29:57;;;;;;;23.42;15.98;;;;;;;6.61;78.90;99241.84;4967009;28;20650;-77
2022/03/13 06:32:26;;;;;;;30.25;16.50;;;;;;;6.64;79.30;99247.03;4969330;28;20298;-77
2022/03/13 06:34:52;;;;;;;20.85;16.30;;;;;;;6.58;78.91;99249.13;4966044;28;20300;-76
2022/03/13 06:37:19;;;;;;;26.02;17.52;;;;;;;6.57;79.21;99248.28;4965615;28;20200;-76
2022/03/13 06:39:46;;;;;;;18.42;15.25;;;;;;;6.48;80.10;99246.91;4962648;28;20224;-76
2022/03/13 06:42:14;;;;;;;19.73;16.10;;;;;;;6.32;81.94;99250.38;4971668;28;20195;-76
2022/03/13 06:44:42;;;;;;;25.40;17.20;;;;;;;6.34;81.20;99244.00;4968873;28;20215;-76
2022/03/13 06:47:08;;;;;;;21.48;16.58;;;;;;;6.20;82.13;99241.13;4974871;28;20247;-76
2022/03/13 06:49:36;;;;;;;23.08;16.45;;;;;;;6.26;82.36;99236.38;4974962;28;20211;-76
2022/03/13 06:52:03;;;;;;;23.98;16.52;;;;;;;6.19;83.66;99242.91;4968429;28;20318;-77
2022/03/13 06:54:29;;;;;;;23.98;16.80;;;;;;;6.18;84.41;99240.31;4974170;28;20194;-84
2022/03/13 06:56:56;;;;;;;26.75;18.00;;;;;;;6.02;85.31;99243.69;4964761;28;20627;-79
2022/03/13 06:59:24;;;;;;;24.85;16.92;;;;;;;6.10;84.22;99240.66;4967274;28;20618;-79
2022/03/13 07:01:51;;;;;;;24.13;17.20;;;;;;;6.13;84.48;99239.66;4967896;28;20187;-79
2022/03/13 07:04:17;;;;;;;21.45;16.35;;;;;;;6.08;85.54;99241.66;4967829;28;20578;-79
2022/03/13 07:06:46;;;;;;;24.92;17.00;;;;;;;6.37;83.22;99235.84;4955795;28;20189;-79
2022/03/13 07:09:13;;;;;;;24.83;17.10;;;;;;;6.57;79.00;99228.69;4968682;28;20264;-79
2022/03/13 07:11:43;;;;;;;25.92;17.17;;;;;;;6.64;78.47;99238.16;4981309;28;20212;-79
2022/03/13 07:14:11;;;;;;;23.02;15.70;;;;;;;6.95;76.67;99239.38;4972580;28;20685;-79
2022/03/13 07:16:42;;;;;;;23.95;17.10;;;;;;;7.10;73.88;99244.84;4958011;28;20192;-79
2022/03/13 07:19:08;;;;;;;27.67;16.85;;;;;;;7.15;71.88;99244.59;4959780;28;20260;-78
2022/03/13 07:21:35;;;;;;;26.20;16.50;;;;;;;7.23;70.54;99246.88;4955180;29;20195;-79
2022/03/13 07:24:01;;;;;;;25.25;16.83;;;;;;;6.98;70.62;99250.78;4955589;29;20189;-78
2022/03/13 07:26:28;;;;;;;21.20;16.55;;;;;;;7.24;70.27;99248.63;4955431;29;20195;-77
2022/03/13 07:28:54;;;;;;;26.88;18.23;;;;;;;7.07;70.73;99239.59;4955363;29;20196;-79
2022/03/13 07:31:21;;;;;;;23.10;16.20;;;;;;;7.12;71.42;99236.69;4955234;29;20277;-77
2022/03/13 07:33:49;;;;;;;21.65;16.00;;;;;;;7.15;70.02;99238.38;4955488;29;20257;-78
2022/03/13 07:36:15;;;;;;;21.98;16.63;;;;;;;7.09;69.55;99236.88;4958245;29;20203;-79
2022/03/13 07:38:42;;;;;;;22.98;16.10;;;;;;;7.29;69.01;99233.19;4954974;29;20197;-78
2022/03/13 07:41:08;;;;;;;23.27;17.02;;;;;;;7.38;68.49;99240.75;4955115;29;20702;-79
2022/03/13 07:43:35;;;;;;;23.90;16.98;;;;;;;7.28;68.31;99235.00;4954930;29;20217;-79
2022/03/13 07:46:02;;;;;;;21.67;17.25;;;;;;;7.29;67.58;99230.50;4955418;29;20194;-79
2022/03/13 07:48:44;;;;;;;21.77;16.65;;;;;;;7.26;68.15;99234.22;4954543;29;20289;-79
2022/03/13 07:51:13;;;;;;;24.75;17.27;;;;;;;7.26;68.04;99225.31;4955320;29;20193;-79
2022/03/13 07:53:40;;;;;;;27.50;18.48;;;;;;;7.53;67.15;99231.09;4953965;28;20213;-78
2022/03/13 07:56:06;;;;;;;25.98;16.50;;;;;;;7.55;66.82;99231.84;4956248;29;20211;-79
2022/03/13 07:58:34;;;;;;;20.98;17.02;;;;;;;7.52;66.24;99219.47;4955825;29;20201;-78
2022/03/13 08:01:00;;;;;;;24.35;16.70;;;;;;;7.67;67.35;99227.69;4958314;28;20881;-77
2022/03/13 08:03:34;;;;;;;27.20;16.90;;;;;;;8.11;64.32;99222.63;4956338;29;20201;-78
2022/03/13 08:06:01;;;;;;;26.95;18.23;;;;;;;8.40;62.61;99225.56;4956989;29;20194;-78
2022/03/13 08:08:29;;;;;;;27.60;17.88;;;;;;;8.45;61.31;99220.81;4956444;29;20715;-78
2022/03/13 08:10:55;;;;;;;23.30;17.63;;;;;;;8.63;62.37;99228.81;4955263;29;20218;-78
2022/03/13 08:13:22;;;;;;;25.23;17.42;;;;;;;8.52;62.94;99216.88;4955363;29;20200;-78
2022/03/13 08:15:48;;;;;;;22.98;16.05;;;;;;;8.73;65.05;99213.94;4958673;29;20706;-78
2022/03/13 08:18:15;;;;;;;24.10;17.10;;;;;;;8.93;61.04;99205.59;4956757;29;20295;-77
2022/03/13 08:20:42;;;;;;;23.73;18.30;;;;;;;9.07;60.65;99220.06;4957675;28;20237;-77
2022/03/13 08:23:08;;;;;;;25.52;17.48;;;;;;;9.22;59.24;99212.91;4956726;29;20195;-77
2022/03/13 08:25:36;;;;;;;24.75;17.65;;;;;;;9.52;61.04;99211.09;4949706;29;20609;-77
2022/03/13 08:28:03;;;;;;;25.55;17.35;;;;;;;9.55;57.63;99210.91;4957206;29;20253;-78
2022/03/13 08:30:30;;;;;;;24.23;18.08;;;;;;;9.69;57.50;99214.56;4958153;29;20617;-77
2022/03/13 08:32:57;;;;;;;24.50;17.63;;;;;;;9.81;56.51;99216.50;4958617;29;20223;-77
2022/03/13 08:35:24;;;;;;;33.30;18.17;;;;;;;9.86;56.91;99216.22;4956211;29;20233;-76
2022/03/13 08:37:51;;;;;;;29.95;18.90;;;;;;;10.02;57.48;99223.28;4957590;29;20205;-78
2022/03/13 08:40:18;;;;;;;23.58;17.08;;;;;;;10.11;55.59;99219.16;4951123;29;20188;-79
2022/03/13 08:42:46;;;;;;;25.27;17.60;;;;;;;10.19;55.62;99219.53;4955385;29;20200;-77
2022/03/13 08:45:13;;;;;;;24.48;16.90;;;;;;;10.35;55.31;99213.22;4956051;29;20653;-78
2022/03/13 08:47:40;;;;;;;23.85;16.92;;;;;;;10.29;54.54;99205.50;4955077;29;20207;-79
2022/03/13 08:50:08;;;;;;;24.92;18.38;;;;;;;10.40;54.85;99206.59;4956568;29;20196;-79
2022/03/13 08:52:35;;;;;;;21.70;17.02;;;;;;;10.55;53.70;99206.56;4955457;29;21013;-78
2022/03/13 08:55:03;;;;;;;24.63;17.38;;;;;;;10.58;54.17;99203.66;4956100;29;20215;-78
2022/03/13 08:57:29;;;;;;;25.38;16.85;;;;;;;10.60;54.01;99207.97;4954138;29;20884;-78
2022/03/13 08:59:57;;;;;;;25.80;17.55;;;;;;;10.73;55.02;99199.13;4953905;29;20211;-79
2022/03/13 09:02:24;;;;;;;21.58;16.85;;;;;;;11.07;53.51;99193.22;4954209;29;20192;-79
2022/03/13 09:04:51;;;;;;;26.80;16.70;;;;;;;11.24;53.30;99191.25;4953513;28;20867;-78
2022/03/13 09:07:17;;;;;;;25.25;17.30;;;;;;;11.75;51.39;99195.88;4954079;29;20192;-78
2022/03/13 09:09:44;;;;;;;24.55;17.55;;;;;;;11.94;51.11;99192.78;4953548;29;20933;-79
2022/03/13 09:12:11;;;;;;;25.45;18.50;;;;;;;12.00;50.57;99186.97;4953897;29;20628;-78
2022/03/13 09:14:39;;;;;;;22.98;16.88;;;;;;;11.98;50.31;99180.81;4953663;29;20193;-78
2022/03/13 09:17:07;;;;;;;21.33;16.77;;;;;;;12.01;50.35;99184.16;4953879;29;20254;-79
2022/03/13 09:19:34;;;;;;;21.73;16.83;;;;;;;11.93;51.35;99183.81;4938760;29;20232;-78
2022/03/13 09:22:00;;;;;;;24.90;16.88;;;;;;;12.14;51.23;99181.44;4934967;29;20189;-78
2022/03/13 09:24:27;;;;;;;23.73;17.70;;;;;;;12.33;50.86;99181.00;4953667;29;20205;-79
2022/03/13 09:26:54;;;;;;;21.63;16.98;;;;;;;12.49;50.62;99175.34;4953701;29;20961;-79
2022/03/13 09:29:21;;;;;;;24.42;16.58;;;;;;;12.63;50.46;99180.59;4953427;29;20211;-78
2022/03/13 09:31:47;;;;;;;25.45;16.55;;;;;;;12.67;50.12;99179.41;4953573;29;20261;-78
2022/03/13 09:34:15;;;;;;;21.17;16.40;;;;;;;12.66;50.36;99180.41;4954644;29;20375;-78
2022/03/13 09:36:43;;;;;;;24.27;17.70;;;;;;;12.84;50.43;99177.28;4954038;29;21039;-78
2022/03/13 09:39:12;;;;;;;22.02;16.95;;;;;;;12.85;50.32;99174.47;4954789;29;20527;-78
2022/03/13 09:41:39;;;;;;;24.17;16.77;;;;;;;13.07;50.24;99171.03;4954357;29;20193;-78
2022/03/13 09:44:07;;;;;;;24.88;18.20;;;;;;;13.22;49.66;99171.72;4952675;29;20211;-79
2022/03/13 09:46:36;;;;;;;26.60;17.23;;;;;;;13.23;49.60;99173.44;4953187;29;20192;-80
2022/03/13 09:49:03;;;;;;;24.02;18.40;;;;;;;13.34;49.09;99167.25;4953051;29;20188;-80
2022/03/13 09:51:31;;;;;;;27.10;16.75;;;;;;;13.47;48.99;99170.72;4953003;29;20213;-78
2022/03/13 09:53:58;;;;;;;25.10;17.50;;;;;;;13.61;48.50;99166.97;4952083;29;20221;-79
2022/03/13 09:56:25;;;;;;;22.55;18.00;;;;;;;13.42;49.07;99159.41;4952697;29;20226;-80
2022/03/13 09:58:52;;;;;;;19.52;15.35;;;;;;;13.61;48.50;99168.81;4952890;29;20190;-80
2022/03/13 10:01:18;;;;;;;24.15;17.73;;;;;;;13.44;48.94;99168.28;4952557;29;20191;-80
2022/03/13 10:03:45;;;;;;;23.30;16.90;;;;;;;13.24;50.03;99169.75;4952958;29;20189;-79
2022/03/13 10:06:13;;;;;;;25.83;17.85;;;;;;;13.46;49.71;99171.72;4952983;29;20193;-79
2022/03/13 10:08:41;;;;;;;21.50;16.75;;;;;;;13.72;48.86;99171.53;4952923;29;20289;-79
2022/03/13 10:11:07;;;;;;;23.10;16.00;;;;;;;13.80;49.00;99179.94;4952850;29;20212;-79
2022/03/13 10:13:37;;;;;;;22.27;15.85;;;;;;;13.71;49.24;99183.34;4952492;29;20337;-78
2022/03/13 10:16:05;;;;;;;26.88;18.27;;;;;;;13.61;49.24;99179.63;4954284;28;20198;-78
2022/03/13 10:18:33;;;;;;;21.00;17.00;;;;;;;13.38;49.63;99184.97;4956559;28;20697;-78
2022/03/13 10:21:07;;;;;;;23.98;18.02;;;;;;;13.46;49.23;99179.84;4956249;28;20235;-78
2022/03/13 10:23:34;;;;;;;24.35;17.58;;;;;;;13.70;48.99;99179.78;4956153;29;20292;-79
2022/03/13 10:26:04;;;;;;;26.98;19.70;;;;;;;13.94;47.95;99178.84;4956285;29;20202;-79
2022/03/13 10:28:32;;;;;;;26.13;19.67;;;;;;;13.80;48.22;99185.34;4956794;29;20201;-78
2022/03/13 10:31:13;;;;;;;23.83;17.15;;;;;;;14.06;47.92;99182.41;4956473;29;20247;-80
2022/03/13 10:33:55;;;;;;;26.17;18.88;;;;;;;14.43;47.28;99177.66;4955378;29;20305;-79
2022/03/13 10:36:31;;;;;;;23.92;18.63;;;;;;;14.37;46.62;99175.44;4956204;29;20195;-79
2022/03/13 10:38:58;;;;;;;23.27;18.13;;;;;;;14.43;46.68;99180.34;4956608;29;20278;-79
2022/03/13 10:41:44;;;;;;;22.55;17.63;;;;;;;14.63;46.75;99178.78;4956234;29;20194;-79
2022/03/13 10:44:16;;;;;;;26.20;18.85;;;;;;;15.16;45.32;99178.03;4955968;29;20277;-79
2022/03/13 10:46:44;;;;;;;25.92;19.05;;;;;;;15.36;44.97;99166.34;4949189;29;20189;-79
2022/03/13 10:49:13;;;;;;;28.52;21.45;;;;;;;15.64;44.79;99180.25;4955890;29;20254;-79
2022/03/13 10:51:45;;;;;;;25.48;17.80;;;;;;;15.65;44.26;99160.31;4955882;29;20200;-79
2022/03/13 10:54:27;;;;;;;22.70;17.35;;;;;;;15.75;43.93;99168.53;4955932;29;20205;-80
2022/03/13 10:57:09;;;;;;;23.20;17.08;;;;;;;15.67;44.24;99160.13;4955976;29;20243;-80
2022/03/13 10:59:37;;;;;;;22.98;17.17;;;;;;;15.63;44.67;99163.13;4956134;29;20192;-80
2022/03/13 11:02:14;;;;;;;24.48;17.48;;;;;;;15.59;44.82;99150.81;4955001;29;20284;-78
2022/03/13 11:04:49;;;;;;;22.00;17.42;;;;;;;15.50;44.98;99151.59;4955983;29;20199;-78
2022/03/13 11:07:16;;;;;;;20.25;16.30;;;;;;;15.45;45.43;99150.28;4955688;29;20635;-80
2022/03/13 11:09:42;;;;;;;23.83;18.08;;;;;;;15.42;45.58;99148.69;4955571;29;20201;-78
2022/03/13 11:12:13;;;;;;;23.33;18.05;;;;;;;15.53;45.46;99145.91;4955855;29;20189;-80
2022/03/13 11:14:40;;;;;;;24.50;16.88;;;;;;;15.36;46.11;99144.66;4953233;29;20668;-77
2022/03/13 11:17:08;;;;;;;21.73;16.95;;;;;;;15.54;45.57;99152.22;4955283;29;20203;-77
2022/03/13 11:19:35;;;;;;;27.92;18.27;;;;;;;15.35;46.46;99148.38;4955082;28;20291;-76
2022/03/13 11:22:03;;;;;;;26.02;17.67;;;;;;;15.46;45.67;99143.88;4954526;29;20200;-76
2022/03/13 11:24:30;;;;;;;23.98;17.63;;;;;;;15.42;45.75;99145.97;4955541;29;20238;-75
2022/03/13 11:26:57;;;;;;;22.52;17.05;;;;;;;15.56;45.63;99142.09;4955135;28;20183;-74